Time;durP1;ratioP1;P1;durP2;ratioP2;P2;SDS_P1;SDS_P2;PMS_P1;PMS_P2;Temp;Humidity;BMP_temperature;BMP_pressure;BME280_temperature;BME280_humidity;BME280_pressure;Samples;Min_cycle;Max_cycle;Signal;HPM_P1;HPM_P2
2021/11/16 00:02:01;;;;;;;71.80;41.60;;;;;;;4.22;72.15;100234.80;103106;1317;95956;-71
2021/11/16 00:04:30;;;;;;;74.00;41.90;;;;;;;4.21;72.25;100232.21;102953;1319;107663;-72
2021/11/16 00:07:05;;;;;;;66.30;38.90;;;;;;;4.18;72.07;100227.70;103020;1316;95951;-72
2021/11/16 00:09:35;;;;;;;68.00;37.50;;;;;;;4.15;72.10;100225.84;103095;1317;97880;-71
2021/11/16 00:12:04;;;;;;;67.80;37.80;;;;;;;4.13;71.91;100228.89;103053;1316;111492;-72
2021/11/16 00:14:32;;;;;;;64.30;37.10;;;;;;;4.10;72.10;100231.77;103041;1317;97935;-71
2021/11/16 00:17:00;;;;;;;66.80;37.40;;;;;;;4.09;72.12;100231.98;103169;1316;107774;-71
2021/11/16 00:19:35;;;;;;;66.20;37.70;;;;;;;4.08;72.23;100232.52;102912;1317;95637;-71
2021/11/16 00:22:04;;;;;;;61.80;36.70;;;;;;;4.06;72.32;100231.36;103030;1317;98558;-72
2021/11/16 00:24:37;;;;;;;63.80;37.30;;;;;;;4.05;72.24;100232.64;102985;1316;111566;-73
2021/11/16 00:27:07;;;;;;;66.50;37.30;;;;;;;4.01;72.07;100239.74;102970;1319;98014;-72
2021/11/16 00:29:37;;;;;;;63.90;36.20;;;;;;;3.98;72.12;100241.05;102843;1319;107717;-73
2021/11/16 00:32:06;;;;;;;64.10;36.80;;;;;;;3.96;72.15;100237.42;102907;1319;96275;-74
2021/11/16 00:34:34;;;;;;;60.70;35.20;;;;;;;3.93;72.14;100238.38;102850;1319;96367;-71
2021/11/16 00:37:04;;;;;;;63.90;36.70;;;;;;;3.91;72.13;100236.31;103071;1316;111514;-72
2021/11/16 00:39:32;;;;;;;58.70;32.80;;;;;;;3.92;72.19;100240.86;102889;1317;97982;-72
2021/11/16 00:42:00;;;;;;;60.10;34.70;;;;;;;3.91;72.14;100239.65;103113;1316;107981;-73
2021/11/16 00:44:28;;;;;;;58.80;36.00;;;;;;;3.92;72.18;100238.93;103070;1316;97875;-71
2021/11/16 00:46:55;;;;;;;63.80;36.20;;;;;;;3.90;72.16;100241.08;103077;1320;98062;-71
2021/11/16 00:49:23;;;;;;;61.20;34.90;;;;;;;3.90;72.30;100240.38;103131;1321;111695;-73
2021/11/16 00:51:51;;;;;;;61.20;34.50;;;;;;;3.90;72.29;100241.59;103030;1316;97885;-74
2021/11/16 00:54:19;;;;;;;63.80;35.50;;;;;;;3.90;72.29;100238.45;103354;1317;107792;-73
2021/11/16 00:56:50;;;;;;;58.90;33.90;;;;;;;3.91;72.49;100234.73;103122;1316;97843;-72
2021/11/16 00:59:18;;;;;;;60.60;35.70;;;;;;;3.92;72.46;100235.42;103106;1320;96297;-74
2021/11/16 01:01:46;;;;;;;62.50;35.70;;;;;;;3.92;72.36;100235.05;103028;1316;111484;-72
2021/11/16 01:04:15;;;;;;;61.50;36.40;;;;;;;3.93;72.35;100231.34;103026;1317;98016;-72
2021/11/16 01:06:47;;;;;;;64.00;36.80;;;;;;;3.94;72.46;100230.09;103032;1316;109899;-71
2021/11/16 01:09:15;;;;;;;62.60;37.00;;;;;;;3.94;72.36;100228.70;102968;1319;97911;-72
2021/11/16 01:11:45;;;;;;;63.10;35.30;;;;;;;3.91;72.14;100227.19;102987;1319;96652;-72
2021/11/16 01:14:15;;;;;;;66.90;37.80;;;;;;;3.84;72.29;100225.80;102989;1317;111556;-71
2021/11/16 01:16:43;;;;;;;66.20;35.90;;;;;;;3.81;72.14;100229.91;103113;1317;96701;-73
2021/11/16 01:19:11;;;;;;;58.20;34.50;;;;;;;3.74;72.03;100224.83;102768;1319;108739;-73
2021/11/16 01:21:43;;;;;;;63.50;37.40;;;;;;;3.66;72.01;100225.02;102883;1319;97880;-73
2021/11/16 01:24:11;;;;;;;62.60;34.50;;;;;;;3.58;72.08;100225.05;102933;1319;97799;-73
2021/11/16 01:26:39;;;;;;;61.90;36.50;;;;;;;3.52;72.14;100224.86;103133;1317;111443;-72
2021/11/16 01:29:11;;;;;;;60.60;35.10;;;;;;;3.49;72.30;100225.81;102863;1319;97940;-72
2021/11/16 01:31:39;;;;;;;61.70;34.90;;;;;;;3.49;72.23;100223.34;102996;1316;107551;-71
2021/11/16 01:34:12;;;;;;;62.60;34.50;;;;;;;3.46;72.06;100225.38;102869;1318;97857;-72
2021/11/16 01:36:40;;;;;;;66.70;36.70;;;;;;;3.38;72.36;100222.74;103112;1319;98005;-77
2021/11/16 01:39:07;;;;;;;59.40;36.00;;;;;;;3.31;72.41;100217.66;103036;1316;110265;-73
2021/11/16 01:41:40;;;;;;;61.10;34.30;;;;;;;3.24;72.05;100221.31;103103;1320;96563;-73
2021/11/16 01:44:11;;;;;;;63.00;37.00;;;;;;;3.21;72.47;100219.67;102952;1317;107688;-72
2021/11/16 01:46:40;;;;;;;65.00;37.80;;;;;;;3.18;72.57;100220.95;102934;1316;98017;-72
2021/11/16 01:49:09;;;;;;;67.20;37.40;;;;;;;3.16;72.73;100216.77;102938;1319;97374;-73
2021/11/16 01:51:40;;;;;;;69.30;37.40;;;;;;;3.16;72.58;100211.54;102825;1316;111657;-72
2021/11/16 01:54:09;;;;;;;66.10;36.10;;;;;;;3.17;72.59;100204.32;102970;1322;97913;-73
2021/11/16 01:56:43;;;;;;;63.20;37.50;;;;;;;3.16;72.73;100203.29;102833;1322;108549;-73
2021/11/16 01:59:18;;;;;;;67.50;37.70;;;;;;;3.16;72.83;100199.97;102807;1323;95267;-73
2021/11/16 02:01:55;;;;;;;64.80;38.20;;;;;;;3.16;72.73;100201.52;102979;1317;95355;-72
2021/11/16 02:04:23;;;;;;;69.30;38.40;;;;;;;3.16;72.81;100203.48;102695;1317;112133;-72
2021/11/16 02:06:51;;;;;;;66.10;36.30;;;;;;;3.18;72.87;100206.58;102756;1322;96754;-72
2021/11/16 02:09:19;;;;;;;69.70;38.20;;;;;;;3.19;72.92;100205.67;102889;1317;107768;-72
2021/11/16 02:11:47;;;;;;;62.40;37.00;;;;;;;3.19;72.63;100210.06;102957;1319;98495;-71
2021/11/16 02:14:21;;;;;;;64.20;37.70;;;;;;;3.16;72.79;100217.66;102923;1317;95980;-71
2021/11/16 02:16:49;;;;;;;67.30;38.80;;;;;;;3.15;72.67;100216.98;104068;1325;111362;-72
2021/11/16 02:19:23;;;;;;;63.00;35.30;;;;;;;3.14;72.72;100211.58;102857;1319;98066;-72
2021/11/16 02:21:54;;;;;;;62.40;35.90;;;;;;;3.11;72.61;100209.89;102881;1320;108032;-71
2021/11/16 02:24:24;;;;;;;63.40;36.20;;;;;;;3.09;72.75;100210.98;102997;1316;98602;-71
2021/11/16 02:26:52;;;;;;;66.60;38.40;;;;;;;3.09;72.96;100213.79;102985;1320;98037;-72
2021/11/16 02:29:20;;;;;;;62.40;36.50;;;;;;;3.08;72.89;100211.17;103055;1317;111310;-70
2021/11/16 02:31:58;;;;;;;62.50;36.80;;;;;;;3.07;73.07;100205.23;102803;1319;98114;-71
2021/11/16 02:34:26;;;;;;;66.30;36.90;;;;;;;3.05;73.01;100206.37;103012;1316;107861;-71
2021/11/16 02:36:54;;;;;;;65.80;35.70;;;;;;;3.04;72.85;100203.23;102977;1316;95332;-71
2021/11/16 02:39:22;;;;;;;65.30;37.20;;;;;;;3.03;73.09;100204.30;103006;1316;97967;-70
2021/11/16 02:41:55;;;;;;;60.30;36.10;;;;;;;3.00;72.59;100204.36;102795;1319;111581;-71
2021/11/16 02:44:24;;;;;;;61.80;34.20;;;;;;;2.98;72.70;100206.69;103031;1316;144066;-71
2021/11/16 02:46:54;;;;;;;58.50;34.00;;;;;;;2.95;72.90;100207.10;102945;1316;107835;-70
2021/11/16 02:49:22;;;;;;;59.00;32.20;;;;;;;2.90;72.42;100202.47;102840;1317;98645;-70
2021/11/16 02:51:50;;;;;;;57.50;32.10;;;;;;;2.83;72.68;100196.68;102887;1317;96403;-71
2021/11/16 02:54:21;;;;;;;61.70;35.70;;;;;;;2.78;72.79;100190.67;102883;1316;111545;-71
2021/11/16 02:56:50;;;;;;;57.60;32.40;;;;;;;2.73;72.51;100186.56;102906;1322;97035;-71
2021/11/16 02:59:18;;;;;;;64.00;36.00;;;;;;;2.70;72.51;100184.89;102859;1322;107898;-71
2021/11/16 03:01:49;;;;;;;58.00;33.60;;;;;;;2.66;72.46;100186.19;102874;1316;97874;-71
2021/11/16 03:04:24;;;;;;;57.90;32.30;;;;;;;2.61;72.70;100184.38;102910;1319;97904;-72
2021/11/16 03:06:52;;;;;;;60.40;34.10;;;;;;;2.57;72.46;100179.93;102750;1318;111412;-71
2021/11/16 03:09:23;;;;;;;59.00;33.10;;;;;;;2.50;72.64;100174.80;102821;1317;97972;-71
2021/11/16 03:11:52;;;;;;;61.00;34.50;;;;;;;2.46;73.07;100181.38;102878;1316;108780;-72
2021/11/16 03:14:20;;;;;;;65.10;36.00;;;;;;;2.45;72.64;100185.61;102974;1321;97885;-71
2021/11/16 03:16:48;;;;;;;67.50;36.40;;;;;;;2.43;72.87;100176.89;102811;1322;98014;-71
2021/11/16 03:19:20;;;;;;;64.20;35.30;;;;;;;2.41;72.84;100182.20;102849;1318;111801;-72
2021/11/16 03:21:55;;;;;;;61.50;35.10;;;;;;;2.37;72.55;100180.70;102991;1323;97885;-72
2021/11/16 03:24:28;;;;;;;65.40;35.10;;;;;;;2.33;72.82;100177.44;103070;1317;107875;-73
2021/11/16 03:26:55;;;;;;;62.10;34.60;;;;;;;2.32;72.89;100179.39;102732;1321;96648;-73
2021/11/16 03:29:26;;;;;;;67.50;35.20;;;;;;;2.30;72.92;100181.89;102986;1316;97887;-72
2021/11/16 03:32:12;;;;;;;63.90;34.30;;;;;;;2.29;72.86;100183.82;103085;1316;111797;-72
2021/11/16 03:34:47;;;;;;;61.40;35.50;;;;;;;2.30;73.12;100187.32;103027;1316;97998;-72
2021/11/16 03:37:20;;;;;;;63.30;33.50;;;;;;;2.31;73.07;100184.84;103129;1320;108345;-70
2021/11/16 03:39:53;;;;;;;59.50;32.80;;;;;;;2.32;72.80;100182.54;103103;1316;96018;-70
2021/11/16 03:42:21;;;;;;;58.90;32.40;;;;;;;2.34;73.23;100184.60;103141;1316;97899;-71
2021/11/16 03:44:53;;;;;;;60.70;33.50;;;;;;;2.36;73.20;100184.04;102985;1316;111469;-71
2021/11/16 03:47:21;;;;;;;58.70;31.70;;;;;;;2.37;73.15;100180.16;102971;1322;96616;-70
2021/11/16 03:49:49;;;;;;;61.20;32.90;;;;;;;2.35;72.94;100184.08;103000;1317;107934;-71
2021/11/16 03:52:22;;;;;;;61.30;33.30;;;;;;;2.31;73.09;100182.92;102860;1322;97946;-70
2021/11/16 03:54:55;;;;;;;57.30;30.70;;;;;;;2.27;73.32;100179.32;102944;1317;95880;-71
2021/11/16 03:57:23;;;;;;;59.90;32.90;;;;;;;2.22;73.39;100178.20;102932;1323;109949;-72
2021/11/16 03:59:52;;;;;;;58.60;33.30;;;;;;;2.19;73.63;100178.27;102911;1322;97791;-71
2021/11/16 04:02:23;;;;;;;61.90;33.10;;;;;;;2.14;73.67;100175.20;102977;1316;107405;-71
2021/11/16 04:04:54;;;;;;;57.20;32.90;;;;;;;2.10;73.76;100173.36;102915;1321;97945;-71
2021/11/16 04:07:23;;;;;;;64.90;33.00;;;;;;;2.07;73.73;100172.19;102897;1320;95709;-71
2021/11/16 04:09:51;;;;;;;57.80;31.60;;;;;;;2.06;74.06;100171.86;103068;1325;111582;-71
2021/11/16 04:12:19;;;;;;;58.30;32.70;;;;;;;2.05;74.20;100171.17;103164;1317;98030;-72
2021/11/16 04:14:47;;;;;;;59.00;31.50;;;;;;;2.03;74.22;100168.27;102963;1322;106257;-73
2021/11/16 04:17:14;;;;;;;61.50;30.80;;;;;;;1.99;74.40;100166.75;102858;1316;97316;-71
2021/11/16 04:19:43;;;;;;;59.80;32.00;;;;;;;1.96;74.47;100168.04;102954;1316;97891;-70
2021/11/16 04:22:14;;;;;;;60.50;33.50;;;;;;;1.93;74.43;100165.66;102962;1322;112669;-71
2021/11/16 04:24:42;;;;;;;63.40;33.20;;;;;;;1.92;74.30;100168.80;102947;1322;98084;-70
2021/11/16 04:27:09;;;;;;;59.70;31.40;;;;;;;1.95;74.32;100165.08;102894;1318;107913;-72
2021/11/16 04:29:37;;;;;;;61.10;32.90;;;;;;;1.96;74.71;100163.30;103147;1316;97908;-71
2021/11/16 04:32:05;;;;;;;58.10;33.00;;;;;;;1.94;74.87;100162.31;102979;1318;98002;-71
2021/11/16 04:34:34;;;;;;;58.60;31.80;;;;;;;1.89;75.16;100159.42;103137;1316;112084;-75
2021/11/16 04:37:05;;;;;;;57.60;32.00;;;;;;;1.86;75.19;100158.78;103118;1317;97924;-72
2021/11/16 04:39:33;;;;;;;55.00;30.30;;;;;;;1.85;75.46;100159.48;102972;1319;108879;-77
2021/11/16 04:42:01;;;;;;;57.60;30.20;;;;;;;1.83;75.49;100159.73;102921;1316;97912;-73
2021/11/16 04:44:29;;;;;;;59.90;31.70;;;;;;;1.79;75.53;100158.23;102980;1320;98003;-70
2021/11/16 04:47:02;;;;;;;55.60;29.90;;;;;;;1.76;76.03;100167.36;102917;1317;111470;-69
2021/11/16 04:49:40;;;;;;;55.30;30.50;;;;;;;1.73;76.01;100168.13;102968;1319;98823;-71
2021/11/16 05:02:47;;;;;;;59.10;29.80;;;;;;;1.67;76.13;100163.52;103002;1322;95410;-71
2021/11/16 05:05:21;;;;;;;61.40;31.80;;;;;;;1.67;76.23;100161.59;103021;1324;107859;-71
2021/11/16 05:08:01;;;;;;;61.40;32.60;;;;;;;1.66;76.24;100169.48;103023;1325;95389;-73
2021/11/16 05:10:29;;;;;;;57.60;30.30;;;;;;;1.63;76.69;100171.97;103076;1321;97934;-73
2021/11/16 05:12:56;;;;;;;63.60;34.20;;;;;;;1.59;76.73;100167.49;103093;1317;111312;-72
2021/11/16 05:15:28;;;;;;;59.70;31.60;;;;;;;1.54;76.76;100169.34;103043;1316;95264;-73
2021/11/16 05:17:56;;;;;;;63.10;33.80;;;;;;;1.50;77.02;100171.85;103037;1322;107814;-74
2021/11/16 05:20:24;;;;;;;63.20;32.60;;;;;;;1.46;77.30;100168.95;103055;1320;98040;-71
2021/11/16 05:22:56;;;;;;;67.40;34.90;;;;;;;1.43;77.17;100169.54;103081;1321;98030;-72
2021/11/16 05:25:24;;;;;;;72.00;38.50;;;;;;;1.41;77.38;100165.02;102942;1317;110400;-72
2021/11/16 05:27:52;;;;;;;63.30;32.80;;;;;;;1.40;77.53;100165.92;103058;1324;98621;-72
2021/11/16 05:30:26;;;;;;;66.50;34.10;;;;;;;1.39;77.70;100165.23;103103;1316;107802;-72
2021/11/16 05:33:00;;;;;;;59.00;31.40;;;;;;;1.36;77.57;100169.47;102904;1322;97992;-71
2021/11/16 05:35:28;;;;;;;60.90;32.40;;;;;;;1.34;77.74;100170.91;103117;1317;97852;-71
2021/11/16 05:37:56;;;;;;;64.50;35.60;;;;;;;1.33;77.44;100174.23;103079;1317;111551;-71
2021/11/16 05:40:24;;;;;;;67.40;34.30;;;;;;;1.32;77.14;100173.58;103055;1321;98201;-72
2021/11/16 05:42:52;;;;;;;64.10;33.90;;;;;;;1.34;77.15;100166.71;103083;1321;105660;-71
2021/11/16 05:45:20;;;;;;;64.70;34.20;;;;;;;1.37;77.04;100170.34;102926;1316;97914;-72
2021/11/16 05:47:56;;;;;;;60.30;33.90;;;;;;;1.41;76.87;100172.55;103116;1317;97936;-71
2021/11/16 05:50:24;;;;;;;65.90;33.10;;;;;;;1.44;76.93;100173.36;102938;1317;111726;-69
2021/11/16 05:52:52;;;;;;;57.30;30.00;;;;;;;1.45;77.13;100176.84;103004;1322;97985;-69
2021/11/16 05:55:24;;;;;;;59.40;30.70;;;;;;;1.43;76.99;100175.83;103007;1321;109606;-69
2021/11/16 05:57:52;;;;;;;59.60;32.20;;;;;;;1.40;76.78;100172.56;102779;1325;97145;-69
2021/11/16 06:00:20;;;;;;;64.20;34.00;;;;;;;1.39;76.75;100172.58;103065;1317;96208;-69
2021/11/16 06:02:49;;;;;;;66.40;36.80;;;;;;;1.38;76.70;100174.88;102893;1322;112204;-68
2021/11/16 06:05:20;;;;;;;60.40;32.90;;;;;;;1.39;76.69;100177.30;102867;1322;97915;-69
2021/11/16 06:07:48;;;;;;;70.80;36.60;;;;;;;1.41;76.87;100174.66;102844;1322;108503;-69
2021/11/16 06:10:16;;;;;;;72.10;38.60;;;;;;;1.42;76.61;100176.55;102793;1322;97967;-69
2021/11/16 06:12:44;;;;;;;74.10;40.30;;;;;;;1.44;76.67;100178.95;102950;1319;95186;-69
2021/11/16 06:15:11;;;;;;;73.00;38.30;;;;;;;1.45;76.56;100183.82;102942;1322;114118;-68
2021/11/16 06:17:43;;;;;;;75.10;40.20;;;;;;;1.46;76.49;100188.70;102790;1316;96597;-69
2021/11/16 06:20:20;;;;;;;72.00;38.80;;;;;;;1.51;76.43;100185.83;102866;1320;108401;-69
2021/11/16 06:22:48;;;;;;;70.00;40.40;;;;;;;1.57;76.69;100190.63;102929;1316;95747;-69
2021/11/16 06:25:17;;;;;;;68.40;37.10;;;;;;;1.62;76.91;100194.02;102929;1320;97053;-69
2021/11/16 06:27:45;;;;;;;65.20;34.20;;;;;;;1.65;76.54;100189.77;102989;1322;111495;-70
2021/11/16 06:30:13;;;;;;;61.30;33.90;;;;;;;1.68;76.78;100193.56;102881;1324;97966;-70
2021/11/16 06:32:41;;;;;;;60.30;33.30;;;;;;;1.69;76.51;100195.83;103060;1317;108559;-70
2021/11/16 06:35:19;;;;;;;60.30;34.00;;;;;;;1.68;76.37;100195.49;102960;1322;97976;-69
2021/11/16 06:37:48;;;;;;;58.30;30.90;;;;;;;1.69;76.60;100193.20;102814;1316;96540;-68
2021/11/16 06:40:17;;;;;;;62.00;32.90;;;;;;;1.70;76.39;100191.25;104592;1319;111545;-69
2021/11/16 06:42:46;;;;;;;64.40;34.70;;;;;;;1.73;76.42;100190.16;104666;1317;97204;-69
2021/11/16 06:45:16;;;;;;;62.60;34.90;;;;;;;1.80;76.83;100190.92;103366;1317;107741;-69
2021/11/16 06:47:45;;;;;;;70.10;39.10;;;;;;;1.83;76.58;100189.64;102937;1316;95297;-69
2021/11/16 06:50:14;;;;;;;68.70;38.50;;;;;;;1.84;76.48;100194.67;102960;1316;97891;-69
2021/11/16 06:52:43;;;;;;;67.60;40.30;;;;;;;1.86;76.22;100196.03;102979;1322;111515;-69
2021/11/16 06:55:12;;;;;;;91.20;52.50;;;;;;;1.90;76.32;100193.88;103010;1317;97875;-68
2021/11/16 06:57:44;;;;;;;94.40;54.50;;;;;;;1.92;76.47;100199.60;102963;1317;107772;-68
2021/11/16 07:00:13;;;;;;;72.40;39.70;;;;;;;1.96;76.52;100202.69;102927;1317;97901;-69
2021/11/16 07:02:56;;;;;;;83.70;47.80;;;;;;;1.99;76.60;100201.75;102926;1317;95300;-70
2021/11/16 07:05:28;;;;;;;101.10;55.90;;;;;;;2.03;76.46;100192.41;102947;1319;112053;-71
2021/11/16 07:07:57;;;;;;;65.90;37.00;;;;;;;2.06;76.30;100191.46;103010;1322;97978;-71
2021/11/16 07:10:31;;;;;;;64.40;34.40;;;;;;;2.06;76.41;100187.60;102979;1317;107875;-69
2021/11/16 07:13:05;;;;;;;62.30;35.20;;;;;;;2.02;76.67;100181.73;102883;1317;97867;-69
2021/11/16 07:15:36;;;;;;;68.00;37.30;;;;;;;2.00;76.62;100181.96;102908;1316;97941;-68
2021/11/16 07:18:06;;;;;;;62.70;35.30;;;;;;;1.98;76.87;100181.48;102925;1320;111635;-69
2021/11/16 07:20:34;;;;;;;74.30;40.50;;;;;;;2.01;76.76;100181.59;102833;1316;98000;-68
2021/11/16 07:23:11;;;;;;;71.70;40.00;;;;;;;2.05;76.61;100185.18;103157;1317;108446;-70
2021/11/16 07:25:42;;;;;;;69.30;40.20;;;;;;;2.11;76.43;100183.84;103661;1316;96413;-69
2021/11/16 07:28:10;;;;;;;71.60;39.20;;;;;;;2.17;76.92;100184.25;102996;1323;97896;-68
2021/11/16 07:30:39;;;;;;;73.30;39.90;;;;;;;2.25;76.84;100188.27;102912;1317;110894;-71
2021/11/16 07:33:14;;;;;;;69.00;39.10;;;;;;;2.34;76.73;100194.59;102974;1320;97992;-69
2021/11/16 07:35:44;;;;;;;65.70;36.70;;;;;;;2.43;76.49;100191.08;102952;1317;107876;-71
2021/11/16 07:38:15;;;;;;;68.10;38.60;;;;;;;2.50;76.59;100190.21;103048;1317;98008;-70
2021/11/16 07:40:48;;;;;;;65.20;37.20;;;;;;;2.58;76.85;100191.09;102977;1322;97942;-71
2021/11/16 07:43:19;;;;;;;70.60;40.60;;;;;;;2.66;76.59;100197.05;102841;1316;111516;-70
2021/11/16 07:45:53;;;;;;;70.10;40.00;;;;;;;2.73;76.79;100198.66;102769;1321;98010;-71
2021/11/16 07:48:28;;;;;;;74.60;43.90;;;;;;;2.80;76.82;100200.09;102886;1322;107839;-70
2021/11/16 07:51:05;;;;;;;79.00;44.10;;;;;;;2.86;76.50;100197.48;102757;1317;97878;-69
2021/11/16 07:53:37;;;;;;;81.30;48.00;;;;;;;2.93;76.71;100204.17;102922;1317;97921;-70
2021/11/16 07:56:11;;;;;;;84.50;48.40;;;;;;;2.99;76.92;100209.12;102902;1317;111647;-69
2021/11/16 07:58:55;;;;;;;81.60;48.90;;;;;;;3.06;76.81;100204.38;102945;1317;96492;-69
2021/11/16 08:04:33;;;;;;;86.10;48.70;;;;;;;3.16;76.88;100196.45;103009;1320;97174;-68
2021/11/16 08:07:24;;;;;;;90.00;50.70;;;;;;;3.21;76.59;100201.77;102859;1321;96388;-69
2021/11/16 08:09:55;;;;;;;90.00;50.70;;;;;;;3.28;76.55;100203.70;102852;1317;111707;-69
2021/11/16 08:12:35;;;;;;;90.00;50.40;;;;;;;3.30;76.67;100203.46;102884;1317;97924;-69
2021/11/16 08:15:13;;;;;;;85.20;48.30;;;;;;;3.36;76.77;100203.88;102901;1319;108166;-69
2021/11/16 08:17:41;;;;;;;97.20;49.70;;;;;;;3.41;76.68;100207.42;103010;1316;98131;-69
2021/11/16 08:20:14;;;;;;;78.50;47.10;;;;;;;3.46;76.55;100203.08;103142;1320;98021;-69
2021/11/16 08:22:45;;;;;;;87.60;48.30;;;;;;;3.53;76.70;100201.67;103011;1319;111653;-69
2021/11/16 08:25:16;;;;;;;89.30;51.10;;;;;;;3.59;76.42;100199.95;103128;1316;97915;-69
2021/11/16 08:27:45;;;;;;;83.50;47.70;;;;;;;3.64;76.43;100201.58;103094;1317;107903;-70
2021/11/16 08:30:19;;;;;;;84.50;47.20;;;;;;;3.71;76.51;100204.04;102894;1324;97966;-69
2021/11/16 08:32:55;;;;;;;85.50;50.30;;;;;;;3.82;76.51;100200.77;103121;1316;97910;-70
2021/11/16 08:35:24;;;;;;;81.90;49.90;;;;;;;3.97;76.68;100204.39;103062;1316;111487;-70
2021/11/16 08:38:00;;;;;;;82.30;47.40;;;;;;;4.14;76.84;100205.16;103037;1322;95292;-69
2021/11/16 08:40:33;;;;;;;85.70;48.80;;;;;;;4.36;76.82;100205.59;102903;1317;107975;-68
2021/11/16 08:43:03;;;;;;;84.40;49.00;;;;;;;4.64;76.81;100206.36;102977;1316;98012;-69
2021/11/16 08:45:37;;;;;;;81.20;46.40;;;;;;;4.92;76.64;100205.17;102925;1316;97891;-69
2021/11/16 08:48:11;;;;;;;76.60;44.40;;;;;;;5.23;76.71;100206.66;103075;1317;112436;-71
2021/11/16 08:51:03;;;;;;;78.60;45.90;;;;;;;5.62;76.63;100203.61;103055;1317;97676;-69
2021/11/16 08:53:36;;;;;;;81.90;48.00;;;;;;;6.01;76.68;100203.02;103029;1317;107793;-69
2021/11/16 08:56:13;;;;;;;91.50;53.30;;;;;;;6.36;76.70;100202.10;103069;1317;97911;-69
2021/11/16 08:58:53;;;;;;;80.50;46.50;;;;;;;6.78;76.54;100196.83;103106;1317;97900;-68
2021/11/16 09:01:22;;;;;;;71.90;43.30;;;;;;;7.35;76.51;100193.85;102997;1316;110387;-69
2021/11/16 09:03:51;;;;;;;62.20;39.50;;;;;;;8.00;76.20;100187.73;103019;1317;99535;-71
2021/11/16 09:06:23;;;;;;;66.40;36.10;;;;;;;8.65;76.04;100189.44;103005;1317;108892;-69
2021/11/16 09:09:09;;;;;;;56.90;34.50;;;;;;;9.25;75.76;100189.29;103004;1322;97854;-69
2021/11/16 09:11:54;;;;;;;55.60;34.80;;;;;;;9.95;75.65;100184.36;103057;1316;97896;-69
2021/11/16 09:14:24;;;;;;;54.80;33.10;;;;;;;10.57;75.64;100176.13;103018;1317;114279;-70
2021/11/16 09:16:53;;;;;;;55.10;34.40;;;;;;;10.98;75.65;100167.10;103010;1318;97939;-69
2021/11/16 09:19:32;;;;;;;51.80;32.60;;;;;;;11.24;75.29;100160.86;102870;1322;108381;-69
2021/11/16 09:22:03;;;;;;;51.40;31.40;;;;;;;11.42;75.21;100159.80;102848;1320;97820;-70
2021/11/16 09:24:37;;;;;;;48.00;30.50;;;;;;;11.56;75.30;100152.95;102944;1322;95200;-70
2021/11/16 09:29:37;;;;;;;48.60;30.20;;;;;;;11.53;74.94;100145.33;103047;1316;97902;-68
2021/11/16 09:32:10;;;;;;;43.30;26.90;;;;;;;11.52;75.12;100145.20;102889;1322;107664;-67
2021/11/16 09:34:44;;;;;;;49.00;31.60;;;;;;;11.39;74.84;100143.66;102883;1317;97930;-68
2021/11/16 09:37:16;;;;;;;47.50;31.40;;;;;;;11.32;74.93;100143.02;102893;1322;98047;-69
2021/11/16 09:39:51;;;;;;;46.90;30.30;;;;;;;11.32;75.00;100138.02;103057;1317;111617;-69
2021/11/16 09:42:28;;;;;;;54.20;33.20;;;;;;;11.38;74.75;100136.09;102988;1316;97935;-70
2021/11/16 09:45:04;;;;;;;52.50;33.50;;;;;;;11.52;74.86;100128.48;103083;1317;108450;-69
2021/11/16 09:47:38;;;;;;;50.60;32.70;;;;;;;11.62;74.77;100121.50;103008;1318;97925;-69
2021/11/16 09:50:15;;;;;;;54.20;34.10;;;;;;;11.73;74.63;100119.77;103016;1320;95271;-69
2021/11/16 09:52:56;;;;;;;45.20;29.80;;;;;;;11.86;74.62;100115.27;102914;1319;112467;-69
2021/11/16 09:55:34;;;;;;;48.90;30.60;;;;;;;11.98;74.50;100115.42;102898;1323;97873;-69
2021/11/16 09:58:08;;;;;;;44.60;27.30;;;;;;;12.00;74.17;100112.64;102858;1322;107830;-72
2021/11/16 10:00:40;;;;;;;41.80;26.60;;;;;;;11.82;74.12;100111.93;103019;1316;97918;-69
2021/11/16 10:03:13;;;;;;;44.90;27.70;;;;;;;11.80;73.92;100105.87;102985;1317;97791;-70
2021/11/16 10:05:47;;;;;;;42.30;25.60;;;;;;;11.91;74.21;100105.56;102981;1317;112049;-70
2021/11/16 10:08:17;;;;;;;43.50;26.50;;;;;;;11.93;73.79;100105.95;102969;1316;97856;-70
2021/11/16 10:10:50;;;;;;;42.00;25.90;;;;;;;11.92;73.62;100104.08;102874;1316;107887;-69
2021/11/16 10:13:25;;;;;;;39.90;25.30;;;;;;;12.00;73.89;100102.69;102980;1317;97972;-68
2021/11/16 10:15:57;;;;;;;45.60;26.70;;;;;;;12.00;73.36;100106.77;102879;1320;97997;-69
2021/11/16 10:18:27;;;;;;;40.70;24.70;;;;;;;12.03;73.54;100103.61;102937;1318;111363;-69
2021/11/16 10:20:56;;;;;;;40.80;24.30;;;;;;;11.99;73.07;100101.71;102931;1317;97904;-68
2021/11/16 10:23:40;;;;;;;47.60;26.50;;;;;;;12.06;73.24;100101.45;102978;1320;108442;-69
2021/11/16 10:26:10;;;;;;;42.40;25.40;;;;;;;12.18;73.24;100089.52;102991;1317;97982;-71
2021/11/16 10:28:44;;;;;;;39.80;23.90;;;;;;;12.28;72.95;100084.80;103012;1317;98008;-70
2021/11/16 10:31:12;;;;;;;;;;;;;;;12.41;72.89;100079.52;103045;1316;113806;-69
2021/11/16 10:33:42;;;;;;;39.20;24.20;;;;;;;12.51;72.99;100076.39;102979;1320;97922;-70
2021/11/16 10:36:15;;;;;;;42.90;24.20;;;;;;;12.60;72.92;100077.05;103049;1317;108779;-70
2021/11/16 10:38:50;;;;;;;37.50;21.40;;;;;;;12.74;72.85;100072.96;103198;1316;97798;-69
2021/11/16 10:41:25;;;;;;;38.40;22.80;;;;;;;12.81;72.53;100069.81;103030;1320;97878;-69
2021/11/16 10:43:58;;;;;;;36.50;21.70;;;;;;;12.76;71.99;100067.48;102220;1317;960955;-72
2021/11/16 10:46:37;;;;;;;39.30;23.50;;;;;;;12.87;72.02;100064.23;102911;1316;96329;-74
2021/11/16 10:49:13;;;;;;;35.20;20.90;;;;;;;13.05;72.05;100062.93;102875;1322;107121;-70
2021/11/16 10:51:48;;;;;;;39.90;22.60;;;;;;;13.15;71.73;100057.81;102973;1323;96452;-70
2021/11/16 10:54:20;;;;;;;38.60;22.30;;;;;;;13.06;71.09;100056.80;103048;1322;98029;-71
2021/11/16 10:56:57;;;;;;;35.20;20.90;;;;;;;13.13;71.11;100058.25;103044;1317;110572;-70
2021/11/16 10:59:31;;;;;;;29.80;16.30;;;;;;;13.24;71.12;100054.48;102949;1317;97892;-69
2021/11/16 11:02:00;;;;;;;24.10;11.00;;;;;;;13.29;71.08;100046.32;102865;1317;107863;-70
2021/11/16 11:04:44;;;;;;;23.60;12.10;;;;;;;13.26;69.81;100042.41;102802;1322;97956;-70
2021/11/16 11:07:13;;;;;;;25.40;13.10;;;;;;;13.20;69.39;100046.10;102957;1316;97889;-71
2021/11/16 11:09:43;;;;;;;24.90;13.00;;;;;;;13.17;68.33;100048.20;102990;1316;112757;-70
2021/11/16 11:12:27;;;;;;;24.50;11.90;;;;;;;13.06;68.10;100045.41;103017;1317;96041;-70
2021/11/16 11:14:56;;;;;;;23.80;11.10;;;;;;;13.10;67.76;100037.31;103030;1317;108595;-70
2021/11/16 11:17:38;;;;;;;20.30;9.60;;;;;;;12.99;67.25;100035.15;102942;1319;97918;-70
2021/11/16 11:20:11;;;;;;;20.60;10.20;;;;;;;12.96;66.10;100032.84;102990;1322;97895;-69
2021/11/16 11:22:43;;;;;;;20.60;10.10;;;;;;;12.86;65.38;100033.00;102901;1317;111282;-70
2021/11/16 11:28:11;;;;;;;22.00;11.00;;;;;;;12.55;62.72;100026.71;102996;1319;108672;-69
2021/11/16 11:30:39;;;;;;;23.90;11.80;;;;;;;12.46;62.54;100023.19;102915;1317;95213;-70
2021/11/16 11:33:08;;;;;;;19.40;9.80;;;;;;;12.49;64.05;100024.39;103055;1320;97902;-70
2021/11/16 11:35:37;;;;;;;20.30;9.20;;;;;;;12.61;63.29;100019.50;102981;1316;111463;-71
2021/11/16 11:38:13;;;;;;;19.80;9.60;;;;;;;12.71;64.31;100022.42;103010;1317;97872;-70
2021/11/16 11:40:41;;;;;;;21.20;9.60;;;;;;;12.82;62.86;100017.64;102890;1319;107853;-67
2021/11/16 11:43:20;;;;;;;20.90;9.90;;;;;;;12.76;62.29;100011.80;102923;1317;95331;-69